createdAt,value
2022-12-16T00:01:05.883Z,-23095.13
2022-12-16T00:03:10.230Z,-23093.69
2022-12-16T00:05:12.870Z,-23093.84
2022-12-16T00:07:15.470Z,-23090.50
2022-12-16T00:09:18.474Z,-23094.34
2022-12-16T00:11:21.097Z,-23088.25
2022-12-16T00:13:23.723Z,-23088.41
2022-12-16T00:15:26.387Z,-23085.53
2022-12-16T00:17:29.008Z,-23094.50
2022-12-16T00:19:33.072Z,-23095.47
2022-12-16T00:21:36.530Z,-23100.09
2022-12-16T00:23:41.610Z,-23098.81
2022-12-16T00:25:45.526Z,-23096.09
2022-12-16T00:27:48.210Z,-23091.47
2022-12-16T00:29:50.862Z,-23087.94
2022-12-16T00:31:53.506Z,-23090.50
2022-12-16T00:33:57.949Z,-23094.50
2022-12-16T00:36:02.035Z,-23093.06
2022-12-16T00:38:04.689Z,-23095.78
2022-12-16T00:40:08.337Z,-23092.25
2022-12-16T00:42:10.994Z,-23094.03
2022-12-16T00:44:13.690Z,-23090.19
2022-12-16T00:46:17.411Z,-23089.84
2022-12-16T00:48:23.813Z,-23088.25
2022-12-16T00:50:27.314Z,-23082.97
2022-12-16T00:52:31.284Z,-23086.81
2022-12-16T00:54:34.049Z,-23088.25
2022-12-16T00:56:36.855Z,-23090.03
2022-12-16T00:58:39.542Z,-23088.25
2022-12-16T01:00:43.216Z,-23089.38
2022-12-16T01:02:48.586Z,-23090.19
2022-12-16T01:04:51.403Z,-23089.22
2022-12-16T01:06:55.251Z,-23088.75
2022-12-16T01:08:59.487Z,-23090.97
2022-12-16T01:11:02.201Z,-23086.34
2022-12-16T01:13:04.863Z,-23090.81
2022-12-16T01:15:09.973Z,-23094.03
2022-12-16T01:17:12.624Z,-23090.81
2022-12-16T01:19:15.687Z,-23089.69
2022-12-16T01:21:18.532Z,-23094.03
2022-12-16T01:23:21.151Z,-23089.53
2022-12-16T01:25:25.355Z,-23087.31
2022-12-16T01:27:28.218Z,-23091.78
2022-12-16T01:29:30.860Z,-23092.56
2022-12-16T01:31:33.810Z,-23091.13
2022-12-16T01:33:36.763Z,-23098.50
2022-12-16T01:35:56.003Z,-23094.19
2022-12-16T01:37:59.236Z,-23092.25
2022-12-16T01:40:02.062Z,-23081.84
2022-12-16T01:42:10.571Z,-23085.84
2022-12-16T01:44:17.783Z,-23079.94
2022-12-16T01:46:24.498Z,-23078.66
2022-12-16T01:48:36.680Z,-23082.50
2022-12-16T01:50:39.433Z,-23083.28
2022-12-16T01:52:50.268Z,-23085.69
2022-12-16T01:54:57.803Z,-23088.25
2022-12-16T01:57:06.843Z,-23087.31
2022-12-16T01:59:12.814Z,-23082.19
2022-12-16T02:01:17.666Z,-23087.94
2022-12-16T02:03:21.305Z,-23090.50
2022-12-16T02:05:24.966Z,-23088.09
2022-12-16T02:07:27.877Z,-23089.22
2022-12-16T02:09:30.546Z,-23094.66
2022-12-16T02:11:58.195Z,-23089.22
2022-12-16T02:14:23.123Z,-23093.38
2022-12-16T02:16:29.032Z,-23089.84
2022-12-16T02:18:42.180Z,-23090.81
2022-12-16T02:21:09.416Z,-23087.63
2022-12-16T02:23:37.604Z,-23083.28
2022-12-16T02:26:13.173Z,-23086.34
2022-12-16T02:28:26.788Z,-23082.66
2022-12-16T02:30:55.485Z,-23084.72
2022-12-16T02:33:10.641Z,-23085.06
2022-12-16T02:35:19.461Z,-23085.69
2022-12-16T02:37:34.359Z,-23081.84
2022-12-16T02:39:39.433Z,-23087.94
2022-12-16T02:41:45.607Z,-23086.97
2022-12-16T02:43:54.575Z,-23083.44
2022-12-16T02:46:00.128Z,-23073.22
2022-12-16T02:48:03.549Z,-23082.34
2022-12-16T02:50:14.941Z,-23081.22
2022-12-16T02:52:21.012Z,-23079.94
2022-12-16T02:54:24.248Z,-23084.25
2022-12-16T02:56:38.755Z,-23083.94
2022-12-16T02:58:51.149Z,-23081.53
2022-12-16T03:01:01.751Z,-23080.72
2022-12-16T03:03:09.815Z,-23080.25
2022-12-16T03:05:18.953Z,-23082.00
2022-12-16T03:07:26.345Z,-23080.91
2022-12-16T03:09:31.149Z,-23079.28
2022-12-16T03:11:34.701Z,-23080.25
2022-12-16T03:13:42.745Z,-23077.84
2022-12-16T03:15:46.737Z,-23076.72
2022-12-16T03:17:53.311Z,-23084.72
2022-12-16T03:20:02.647Z,-23082.50
2022-12-16T03:22:11.735Z,-23080.72
2022-12-16T03:24:15.638Z,-23084.41
2022-12-16T03:26:23.061Z,-23088.56
2022-12-16T03:28:39.418Z,-23090.66
2022-12-16T03:30:48.650Z,-23088.91
2022-12-16T03:32:59.219Z,-23084.72
2022-12-16T03:35:13.531Z,-23086.97
2022-12-16T03:37:16.491Z,-23084.09
2022-12-16T03:39:21.597Z,-23084.72
2022-12-16T03:41:25.502Z,-23080.25
2022-12-16T03:43:29.179Z,-23080.91
2022-12-16T03:45:38.809Z,-23078.31
2022-12-16T03:47:41.496Z,-23080.25
2022-12-16T03:49:45.649Z,-23083.28
2022-12-16T03:51:48.466Z,-23082.81
2022-12-16T03:53:51.174Z,-23082.19
2022-12-16T03:55:53.976Z,-23079.94
2022-12-16T03:57:57.221Z,-23081.38
2022-12-16T04:00:00.014Z,-23080.25
2022-12-16T04:02:02.930Z,-23080.56
2022-12-16T04:04:06.126Z,-23079.44
2022-12-16T04:06:10.407Z,-23078.31
2022-12-16T04:08:13.119Z,-23078.50
2022-12-16T04:10:15.914Z,-23077.84
2022-12-16T04:12:36.358Z,-23077.69
2022-12-16T04:14:55.886Z,-23081.38
2022-12-16T04:17:16.764Z,-23077.69
2022-12-16T04:19:42.907Z,-23075.44
2022-12-16T04:22:04.664Z,-23082.81
2022-12-16T04:24:24.153Z,-23078.50
2022-12-16T04:26:26.834Z,-23075.59
2022-12-16T04:28:29.622Z,-23081.22
2022-12-16T04:30:34.710Z,-23078.31
2022-12-16T04:32:51.397Z,-23079.28
2022-12-16T04:34:54.100Z,-23088.91
2022-12-16T04:37:16.986Z,-23085.69
2022-12-16T04:39:37.345Z,-23078.66
2022-12-16T04:41:57.573Z,-23077.84
2022-12-16T04:44:18.006Z,-23076.41
2022-12-16T04:46:38.280Z,-23078.31
2022-12-16T04:49:09.861Z,-23079.13
2022-12-16T04:51:30.287Z,-23079.63
2022-12-16T04:53:51.663Z,-23077.38
2022-12-16T04:56:12.065Z,-23075.44
2022-12-16T04:58:33.828Z,-23075.28
2022-12-16T05:00:54.252Z,-23077.53
2022-12-16T05:03:16.638Z,-23080.91
2022-12-16T05:05:37.059Z,-23074.97
2022-12-16T05:07:57.462Z,-23075.78
2022-12-16T05:10:19.125Z,-23079.94
2022-12-16T05:12:47.961Z,-23078.31
2022-12-16T05:15:08.430Z,-23076.41
2022-12-16T05:17:28.827Z,-23069.03
2022-12-16T05:19:49.399Z,-23068.41
2022-12-16T05:22:09.793Z,-23075.13
2022-12-16T05:24:30.262Z,-23080.41
2022-12-16T05:26:52.250Z,-23076.09
2022-12-16T05:29:12.744Z,-23074.31
2022-12-16T05:31:32.975Z,-23074.00
2022-12-16T05:33:53.186Z,-23072.88
2022-12-16T05:36:13.677Z,-23078.66
2022-12-16T05:38:34.160Z,-23074.66
2022-12-16T05:41:08.915Z,-23080.56
2022-12-16T05:43:30.651Z,-23074.66
2022-12-16T05:45:51.352Z,-23079.94
2022-12-16T05:48:11.780Z,-23076.09
2022-12-16T05:50:32.130Z,-23077.06
2022-12-16T05:52:52.654Z,-23078.31
2022-12-16T05:55:13.177Z,-23084.41
2022-12-16T05:57:33.883Z,-23083.13
2022-12-16T05:59:55.399Z,-23078.31
2022-12-16T06:02:16.158Z,-23077.06
2022-12-16T06:04:36.491Z,-23081.53
2022-12-16T06:06:56.942Z,-23082.34
2022-12-16T06:09:17.461Z,-23076.91
2022-12-16T06:11:37.758Z,-23074.31
2022-12-16T06:13:58.227Z,-23073.53
2022-12-16T06:16:20.230Z,-23078.97
2022-12-16T06:18:40.566Z,-23079.94
2022-12-16T06:21:00.961Z,-23078.00
2022-12-16T06:23:25.444Z,-23076.25
2022-12-16T06:25:45.898Z,-23073.22
2022-12-16T06:28:09.488Z,-23075.59
2022-12-16T06:30:30.157Z,-23070.00
2022-12-16T06:32:51.726Z,-23071.13
2022-12-16T06:35:11.889Z,-23070.50
2022-12-16T06:37:32.426Z,-23075.28
2022-12-16T06:39:53.205Z,-23076.72
2022-12-16T06:42:13.467Z,-23078.16
2022-12-16T06:44:33.705Z,-23078.66
2022-12-16T06:46:54.259Z,-23079.63
2022-12-16T06:49:15.896Z,-23073.22
2022-12-16T06:51:36.358Z,-23077.38
2022-12-16T06:53:56.785Z,-23079.13
2022-12-16T06:56:17.135Z,-23077.06
2022-12-16T06:58:37.459Z,-23077.84
2022-12-16T07:01:12.417Z,-23079.94
2022-12-16T07:03:35.914Z,-23080.72
2022-12-16T07:06:06.260Z,-23083.63
2022-12-16T07:08:26.721Z,-23082.34
2022-12-16T07:10:46.847Z,-23082.81
2022-12-16T07:13:07.209Z,-23080.56
2022-12-16T07:15:29.290Z,-23083.44
2022-12-16T07:17:49.627Z,-23083.78
2022-12-16T07:20:10.025Z,-23081.22
2022-12-16T07:22:31.676Z,-23083.94
2022-12-16T07:24:52.284Z,-23084.09
2022-12-16T07:27:12.763Z,-23080.91
2022-12-16T07:29:33.129Z,-23084.72
2022-12-16T07:32:01.964Z,-23082.81
2022-12-16T07:34:22.431Z,-23088.75
2022-12-16T07:36:42.789Z,-23086.66
2022-12-16T07:39:04.514Z,-23086.97
2022-12-16T07:41:25.247Z,-23087.13
2022-12-16T07:43:45.662Z,-23086.00
2022-12-16T07:46:06.027Z,-23092.09
2022-12-16T07:48:26.834Z,-23091.94
2022-12-16T07:50:47.182Z,-23088.56
2022-12-16T07:53:13.298Z,-23093.22
2022-12-16T07:55:34.588Z,-23096.56
2022-12-16T07:57:55.037Z,-23095.94
2022-12-16T08:00:15.443Z,-23094.66
2022-12-16T08:02:36.360Z,-23089.22
2022-12-16T08:04:56.809Z,-23095.94
2022-12-16T08:07:17.479Z,-23094.66
2022-12-16T08:09:37.642Z,-23090.03
2022-12-16T08:11:59.323Z,-23090.81
2022-12-16T08:14:19.618Z,-23094.34
2022-12-16T08:16:40.168Z,-23096.41
2022-12-16T08:19:01.470Z,-23086.97
2022-12-16T08:21:24.122Z,-23104.25
2022-12-16T08:23:44.533Z,-23099.16
2022-12-16T08:26:04.772Z,-23102.03
2022-12-16T08:28:26.367Z,-23097.84
2022-12-16T08:30:46.706Z,-23106.50
2022-12-16T08:35:47.412Z,-23094.97
2022-12-16T08:38:12.297Z,-23099.16
2022-12-16T08:40:35.993Z,-23098.81
2022-12-16T08:42:57.207Z,-23097.38
2022-12-16T08:45:18.913Z,-23100.09
2022-12-16T08:47:39.403Z,-23101.38
2022-12-16T08:50:02.045Z,-23102.97
2022-12-16T08:52:23.275Z,-23104.91
2022-12-16T08:54:43.680Z,-23107.47
2022-12-16T08:57:04.059Z,-23104.25
2022-12-16T08:59:24.161Z,-23108.41
2022-12-16T09:01:45.831Z,-23102.19
2022-12-16T09:04:06.145Z,-23106.81
2022-12-16T09:06:26.413Z,-23105.53
2022-12-16T09:08:46.898Z,-23106.97
2022-12-16T09:11:07.942Z,-23102.81
2022-12-16T09:13:31.251Z,-23096.91
2022-12-16T09:15:51.688Z,-23108.41
2022-12-16T09:18:14.200Z,-23102.66
2022-12-16T09:20:34.450Z,-23102.03
2022-12-16T09:22:55.310Z,-23098.50
2022-12-16T09:25:15.465Z,-23102.34
2022-12-16T09:27:35.766Z,-23109.69
2022-12-16T09:29:56.169Z,-23105.22
2022-12-16T09:32:17.529Z,-23097.22
2022-12-16T09:34:48.104Z,-23100.59
2022-12-16T09:37:08.676Z,-23100.41
2022-12-16T09:39:29.078Z,-23100.59
2022-12-16T09:42:00.501Z,-23103.31
2022-12-16T09:44:28.077Z,-23121.38
2022-12-16T09:46:56.633Z,-23111.63
2022-12-16T09:49:29.001Z,-23094.97
2022-12-16T09:51:52.821Z,-23099.47
2022-12-16T09:54:15.160Z,-23105.53
2022-12-16T09:56:37.790Z,-23096.91
2022-12-16T09:59:01.538Z,-23108.41
2022-12-16T10:01:24.738Z,-23098.81
2022-12-16T10:03:53.438Z,-23102.66
2022-12-16T10:06:24.124Z,-23107.47
2022-12-16T10:09:01.571Z,-23108.09
2022-12-16T10:11:30.634Z,-23107.78
2022-12-16T10:13:56.139Z,-23096.09
2022-12-16T10:16:26.634Z,-23100.09
2022-12-16T10:19:02.037Z,-23100.59
2022-12-16T10:21:26.916Z,-23106.19
2022-12-16T10:23:50.998Z,-23116.75
2022-12-16T10:26:17.500Z,-23124.09
2022-12-16T10:28:48.975Z,-23119.94
2022-12-16T10:31:09.326Z,-23123.31
2022-12-16T10:33:33.210Z,-23123.94
2022-12-16T10:35:56.514Z,-23125.38
2022-12-16T10:38:16.982Z,-23111.94
2022-12-16T10:40:43.873Z,-23121.84
2022-12-16T10:43:08.237Z,-23110.66
2022-12-16T10:45:44.542Z,-23122.03
2022-12-16T10:48:10.243Z,-23119.94
2022-12-16T10:50:32.201Z,-23113.88
2022-12-16T10:52:52.636Z,-23122.03
2022-12-16T10:55:31.546Z,-23123.31
2022-12-16T10:58:01.464Z,-23116.25
2022-12-16T11:00:31.115Z,-23114.50
2022-12-16T11:02:51.642Z,-23106.34
2022-12-16T11:05:26.359Z,-23108.75
2022-12-16T11:07:51.116Z,-23110.66
2022-12-16T11:10:11.218Z,-23111.31
2022-12-16T11:12:43.234Z,-23116.09
2022-12-16T11:15:28.699Z,-23117.69
2022-12-16T11:17:50.070Z,-23119.31
2022-12-16T11:20:26.128Z,-23125.38
2022-12-16T11:22:46.412Z,-23123.13
2022-12-16T11:25:22.709Z,-23116.59
2022-12-16T11:27:45.341Z,-23124.91
2022-12-16T11:30:14.446Z,-23118.19
2022-12-16T11:32:39.038Z,-23130.81
2022-12-16T11:35:00.419Z,-23118.50
2022-12-16T11:37:21.226Z,-23112.75
2022-12-16T11:39:44.982Z,-23112.56
2022-12-16T11:42:07.954Z,-23114.66
2022-12-16T11:44:35.770Z,-23106.81
2022-12-16T11:46:57.425Z,-23114.19
2022-12-16T11:49:25.018Z,-23111.31
2022-12-16T11:51:48.943Z,-23125.06
2022-12-16T11:54:13.235Z,-23115.63
2022-12-16T11:56:36.199Z,-23131.78
2022-12-16T11:59:03.042Z,-23136.25
2022-12-16T12:01:31.472Z,-23126.50
2022-12-16T12:04:00.630Z,-23129.84
2022-12-16T12:06:30.352Z,-23131.47
2022-12-16T12:08:57.421Z,-23121.38
2022-12-16T12:11:27.405Z,-23131.78
2022-12-16T12:14:01.412Z,-23124.75
2022-12-16T12:16:27.475Z,-23122.81
2022-12-16T12:18:59.990Z,-23121.53
2022-12-16T12:21:28.445Z,-23121.84
2022-12-16T12:23:59.343Z,-23129.84
2022-12-16T12:26:30.966Z,-23128.56
2022-12-16T12:29:01.422Z,-23131.13
2022-12-16T12:31:28.258Z,-23119.31
2022-12-16T12:33:56.376Z,-23125.22
2022-12-16T12:36:19.431Z,-23130.00
2022-12-16T12:38:45.867Z,-23135.78
2022-12-16T12:41:15.015Z,-23138.50
2022-12-16T12:43:46.489Z,-23134.34
2022-12-16T12:46:16.435Z,-23130.50
2022-12-16T12:48:41.137Z,-23128.25
2022-12-16T12:51:08.864Z,-23134.03
2022-12-16T12:53:40.567Z,-23133.22
2022-12-16T12:56:05.144Z,-23121.22
2022-12-16T12:58:27.543Z,-23108.75
2022-12-16T13:00:54.005Z,-23114.81
2022-12-16T13:03:24.139Z,-23126.66
2022-12-16T13:05:49.423Z,-23124.09
2022-12-16T13:08:09.802Z,-23118.19
2022-12-16T13:10:48.182Z,-23128.09
2022-12-16T13:13:48.694Z,-23126.97
2022-12-16T13:16:08.068Z,-23116.41
2022-12-16T13:18:35.881Z,-23128.56
2022-12-16T13:20:56.737Z,-23120.59
2022-12-16T13:23:19.944Z,-23126.66
2022-12-16T13:25:59.128Z,-23116.41
2022-12-16T13:28:19.600Z,-23112.91
2022-12-16T13:30:43.275Z,-23117.22
2022-12-16T13:33:13.174Z,-23121.53
2022-12-16T13:35:36.636Z,-23117.69
2022-12-16T13:37:57.094Z,-23118.97
2022-12-16T13:40:23.834Z,-23118.19
2022-12-16T13:43:11.283Z,-23117.06
2022-12-16T13:45:43.786Z,-23109.38
2022-12-16T13:48:20.999Z,-23112.25
2022-12-16T13:50:55.614Z,-23114.50
2022-12-16T13:53:19.577Z,-23116.09
2022-12-16T13:55:45.576Z,-23104.41
2022-12-16T13:58:07.900Z,-23101.38
2022-12-16T14:00:37.437Z,-23094.97
2022-12-16T14:02:58.977Z,-23106.34
2022-12-16T14:05:20.963Z,-23106.19
2022-12-16T14:07:43.782Z,-23101.38
2022-12-16T14:10:07.893Z,-23106.81
2022-12-16T14:12:39.477Z,-23095.47
2022-12-16T14:15:06.525Z,-23108.75
2022-12-16T14:17:28.715Z,-23108.25
2022-12-16T14:19:56.400Z,-23104.91
2022-12-16T14:22:27.574Z,-23105.22
2022-12-16T14:24:48.427Z,-23100.41
2022-12-16T14:27:09.260Z,-23100.25
2022-12-16T14:29:39.334Z,-23105.06
2022-12-16T14:32:01.226Z,-23102.34
2022-12-16T14:34:22.377Z,-23106.19
2022-12-16T14:36:44.851Z,-23102.97
2022-12-16T14:39:08.953Z,-23104.59
2022-12-16T14:41:30.537Z,-23096.56
2022-12-16T14:43:51.881Z,-23092.25
2022-12-16T14:46:12.400Z,-23100.09
2022-12-16T14:48:34.809Z,-23097.38
2022-12-16T14:50:55.035Z,-23099.28
2022-12-16T14:53:32.056Z,-23097.06
2022-12-16T14:56:05.433Z,-23094.34
2022-12-16T14:58:29.029Z,-23089.53
2022-12-16T15:01:00.096Z,-23087.94
2022-12-16T15:03:26.693Z,-23094.97
2022-12-16T15:05:53.239Z,-23097.22
2022-12-16T15:08:13.721Z,-23094.34
2022-12-16T15:10:34.030Z,-23092.75
2022-12-16T15:12:58.822Z,-23092.75
2022-12-16T15:15:24.253Z,-23093.84
2022-12-16T15:17:47.526Z,-23093.22
2022-12-16T15:20:11.519Z,-23090.19
2022-12-16T15:22:33.419Z,-23090.66
2022-12-16T15:24:56.518Z,-23091.63
2022-12-16T15:27:32.680Z,-23094.34
2022-12-16T15:30:00.027Z,-23098.50
2022-12-16T15:32:20.494Z,-23093.06
2022-12-16T15:34:47.370Z,-23096.09
2022-12-16T15:37:07.619Z,-23093.22
2022-12-16T15:39:29.961Z,-23093.53
2022-12-16T15:41:52.335Z,-23095.94
2022-12-16T15:44:23.652Z,-23093.38
2022-12-16T15:46:46.905Z,-23094.66
2022-12-16T15:49:10.114Z,-23092.09
2022-12-16T15:51:48.897Z,-23087.94
2022-12-16T15:54:21.014Z,-23092.41
2022-12-16T15:56:43.411Z,-23094.97
2022-12-16T15:59:15.261Z,-23094.03
2022-12-16T16:01:37.887Z,-23092.56
2022-12-16T16:04:06.952Z,-23089.84
2022-12-16T16:06:34.861Z,-23089.06
2022-12-16T16:08:55.110Z,-23088.91
2022-12-16T16:11:15.432Z,-23087.31
2022-12-16T16:13:36.042Z,-23087.31
2022-12-16T16:15:56.629Z,-23087.94
2022-12-16T16:18:18.455Z,-23088.75
2022-12-16T16:20:40.352Z,-23089.69
2022-12-16T16:23:00.827Z,-23092.75
2022-12-16T16:25:21.309Z,-23093.06
2022-12-16T16:27:41.663Z,-23089.53
2022-12-16T16:30:02.107Z,-23091.94
2022-12-16T16:32:22.521Z,-23089.84
2022-12-16T16:34:47.922Z,-23087.94
2022-12-16T16:37:13.234Z,-23087.63
2022-12-16T16:39:33.742Z,-23087.63
2022-12-16T16:41:54.091Z,-23090.19
2022-12-16T16:44:18.051Z,-23088.56
2022-12-16T16:46:53.104Z,-23087.31
2022-12-16T16:49:13.255Z,-23087.94
2022-12-16T16:51:33.611Z,-23088.25
2022-12-16T16:53:55.691Z,-23085.06
2022-12-16T16:56:21.127Z,-23089.69
2022-12-16T16:58:45.832Z,-23086.50
2022-12-16T17:01:06.319Z,-23089.53
2022-12-16T17:03:26.842Z,-23086.66
2022-12-16T17:05:47.640Z,-23088.56
2022-12-16T17:08:08.144Z,-23088.25
2022-12-16T17:10:44.889Z,-23086.66
2022-12-16T17:13:05.100Z,-23089.53
2022-12-16T17:15:34.106Z,-23090.66
2022-12-16T17:17:54.461Z,-23095.13
2022-12-16T17:20:14.819Z,-23096.09
2022-12-16T17:22:35.208Z,-23092.41
2022-12-16T17:24:55.616Z,-23094.81
2022-12-16T17:27:17.283Z,-23091.78
2022-12-16T17:29:40.713Z,-23088.56
2022-12-16T17:32:01.169Z,-23090.34
2022-12-16T17:34:21.525Z,-23090.50
2022-12-16T17:36:41.993Z,-23088.25
2022-12-16T17:39:02.992Z,-23086.97
2022-12-16T17:41:23.362Z,-23089.53
2022-12-16T17:43:45.112Z,-23094.34
2022-12-16T17:46:13.811Z,-23089.06
2022-12-16T17:48:34.203Z,-23093.22
2022-12-16T17:50:54.524Z,-23091.63
2022-12-16T17:53:15.330Z,-23094.66
2022-12-16T17:55:35.764Z,-23094.66
2022-12-16T17:57:56.258Z,-23096.91
2022-12-16T18:00:18.479Z,-23096.91
2022-12-16T18:02:39.121Z,-23093.53
2022-12-16T18:04:59.735Z,-23093.38
2022-12-16T18:07:20.054Z,-23093.53
2022-12-16T18:09:40.102Z,-23092.75
2022-12-16T18:12:00.395Z,-23091.94
2022-12-16T18:14:20.671Z,-23093.38
2022-12-16T18:16:42.373Z,-23093.69
2022-12-16T18:19:06.700Z,-23091.47
2022-12-16T18:21:28.021Z,-23093.84
2022-12-16T18:23:48.849Z,-23085.06
2022-12-16T18:26:17.065Z,-23089.53
2022-12-16T18:28:37.332Z,-23093.69
2022-12-16T18:30:57.754Z,-23095.94
2022-12-16T18:33:19.654Z,-23096.91
2022-12-16T18:35:39.956Z,-23092.41
2022-12-16T18:38:00.493Z,-23092.41
2022-12-16T18:40:20.906Z,-23090.19
2022-12-16T18:42:41.298Z,-23093.69
2022-12-16T18:45:01.882Z,-23090.03
2022-12-16T18:47:22.012Z,-23087.44
2022-12-16T18:49:43.622Z,-23088.56
2022-12-16T18:52:04.105Z,-23088.56
2022-12-16T18:54:25.829Z,-23095.94
2022-12-16T18:56:46.048Z,-23091.78
2022-12-16T18:59:06.195Z,-23087.63
2022-12-16T19:01:28.990Z,-23093.22
2022-12-16T19:03:49.550Z,-23089.22
2022-12-16T19:06:14.550Z,-23088.75
2022-12-16T19:08:34.745Z,-23088.56
2022-12-16T19:10:55.369Z,-23090.50
2022-12-16T19:13:16.171Z,-23081.53
2022-12-16T19:15:41.002Z,-23082.50
2022-12-16T19:18:01.985Z,-23088.25
2022-12-16T19:20:22.894Z,-23081.53
2022-12-16T19:22:44.288Z,-23088.56
2022-12-16T19:25:04.821Z,-23089.38
2022-12-16T19:27:25.448Z,-23090.03
2022-12-16T19:29:45.930Z,-23088.09
2022-12-16T19:32:20.942Z,-23084.91
2022-12-16T19:34:41.227Z,-23086.97
2022-12-16T19:37:09.952Z,-23087.31
2022-12-16T19:39:31.456Z,-23083.94
2022-12-16T19:41:51.791Z,-23086.19
2022-12-16T19:44:12.111Z,-23082.00
2022-12-16T19:46:32.538Z,-23077.84
2022-12-16T19:48:52.888Z,-23081.84
2022-12-16T19:51:17.277Z,-23085.06
2022-12-16T19:53:37.721Z,-23084.25
2022-12-16T19:55:59.216Z,-23083.44
2022-12-16T19:58:19.545Z,-23082.81
2022-12-16T20:00:39.796Z,-23082.34
2022-12-16T20:03:00.284Z,-23083.94
2022-12-16T20:05:20.969Z,-23082.34
2022-12-16T20:07:41.402Z,-23080.56
2022-12-16T20:10:01.577Z,-23079.63
2022-12-16T20:12:24.789Z,-23081.69
2022-12-16T20:14:45.677Z,-23082.97
2022-12-16T20:17:05.753Z,-23080.91
2022-12-16T20:19:26.020Z,-23080.56
2022-12-16T20:21:49.064Z,-23084.25
2022-12-16T20:24:09.592Z,-23080.91
2022-12-16T20:26:30.135Z,-23083.94
2022-12-16T20:28:51.782Z,-23081.84
2022-12-16T20:31:12.081Z,-23083.63
2022-12-16T20:33:33.777Z,-23084.72
2022-12-16T20:35:56.185Z,-23087.44
2022-12-16T20:38:16.760Z,-23086.34
2022-12-16T20:40:36.999Z,-23087.44
2022-12-16T20:42:57.282Z,-23087.94
2022-12-16T20:45:19.134Z,-23086.97
2022-12-16T20:47:39.579Z,-23087.63
2022-12-16T20:50:00.174Z,-23087.44
2022-12-16T20:52:20.356Z,-23083.13
2022-12-16T20:54:40.860Z,-23084.41
2022-12-16T20:57:01.163Z,-23085.84
2022-12-16T20:59:21.576Z,-23087.94
2022-12-16T21:02:14.635Z,-23085.06
2022-12-16T21:04:24.269Z,-23083.78
2022-12-16T21:06:44.342Z,-23082.50
2022-12-16T21:09:04.852Z,-23081.84
2022-12-16T21:11:24.980Z,-23082.19
2022-12-16T21:13:45.814Z,-23085.69
2022-12-16T21:16:06.190Z,-23085.53
2022-12-16T21:18:27.919Z,-23086.66
2022-12-16T21:20:48.329Z,-23086.00
2022-12-16T21:23:19.381Z,-23084.91
2022-12-16T21:25:39.786Z,-23086.66
2022-12-16T21:28:00.192Z,-23085.84
2022-12-16T21:30:20.551Z,-23080.25
2022-12-16T21:32:44.386Z,-23081.22
2022-12-16T21:35:06.159Z,-23084.91
2022-12-16T21:37:26.641Z,-23084.56
2022-12-16T21:39:47.225Z,-23082.50
2022-12-16T21:42:07.747Z,-23080.91
2022-12-16T21:44:28.343Z,-23081.84
2022-12-16T21:46:48.983Z,-23081.22
2022-12-16T21:49:09.650Z,-23082.19
2022-12-16T21:51:31.198Z,-23084.72
2022-12-16T21:53:50.777Z,-23085.69
2022-12-16T21:56:14.436Z,-23085.06
2022-12-16T21:58:34.945Z,-23086.19
2022-12-16T22:03:35.607Z,-23079.44
2022-12-16T22:05:56.343Z,-23080.25
2022-12-16T22:08:17.752Z,-23077.38
2022-12-16T22:10:38.338Z,-23077.69
2022-12-16T22:12:58.311Z,-23078.00
2022-12-16T22:15:18.720Z,-23083.94
2022-12-16T22:17:39.576Z,-23081.84
2022-12-16T22:20:14.822Z,-23075.44
2022-12-16T22:22:35.041Z,-23075.78
2022-12-16T22:24:56.927Z,-23074.00
2022-12-16T22:27:17.310Z,-23076.72
2022-12-16T22:29:37.563Z,-23076.09
2022-12-16T22:31:58.476Z,-23073.69
2022-12-16T22:34:18.802Z,-23071.94
2022-12-16T22:36:39.102Z,-23071.59
2022-12-16T22:38:59.481Z,-23069.84
2022-12-16T22:41:21.134Z,-23069.53
2022-12-16T22:43:46.671Z,-23067.13
2022-12-16T22:46:07.295Z,-23065.34
2022-12-16T22:48:30.090Z,-23066.81
2022-12-16T22:50:50.853Z,-23063.13
2022-12-16T22:53:12.538Z,-23061.69
2022-12-16T22:55:33.217Z,-23062.00
2022-12-16T22:57:55.059Z,-23060.88
2022-12-16T23:00:16.360Z,-23061.03
2022-12-16T23:02:36.864Z,-23058.78
2022-12-16T23:04:57.327Z,-23054.63
2022-12-16T23:07:17.624Z,-23055.28
2022-12-16T23:09:38.134Z,-23054.00
2022-12-16T23:12:00.002Z,-23051.91
2022-12-16T23:14:21.856Z,-23053.03
2022-12-16T23:16:42.274Z,-23051.59
2022-12-16T23:19:02.620Z,-23047.25
2022-12-16T23:21:22.991Z,-23047.59
2022-12-16T23:23:43.500Z,-23045.34
2022-12-16T23:26:13.887Z,-23045.00
2022-12-16T23:28:34.205Z,-23043.09
2022-12-16T23:30:56.588Z,-23036.38
2022-12-16T23:33:17.383Z,-23033.66
2022-12-16T23:35:37.811Z,-23029.16
2022-12-16T23:37:58.476Z,-23030.13
2022-12-16T23:40:19.008Z,-23033.16
2022-12-16T23:42:39.502Z,-23027.22
2022-12-16T23:44:59.914Z,-23032.19
2022-12-16T23:47:21.687Z,-23026.75
2022-12-16T23:49:42.286Z,-23021.94
2022-12-16T23:52:11.068Z,-23028.03
2022-12-16T23:54:31.370Z,-23023.53
2022-12-16T23:56:51.723Z,-23026.44
2022-12-16T23:59:11.892Z,-23023.69
